createdAt,value
2022-09-10T00:02:32.529Z,12.83
2022-09-10T00:07:31.867Z,12.82
2022-09-10T00:12:32.008Z,12.81
2022-09-10T00:17:31.324Z,12.80
2022-09-10T00:22:30.110Z,12.78
2022-09-10T00:27:29.716Z,12.76
2022-09-10T00:32:28.908Z,12.74
2022-09-10T00:37:28.372Z,12.73
2022-09-10T00:42:27.885Z,12.71
2022-09-10T00:47:33.888Z,12.70
2022-09-10T00:52:37.580Z,12.69
2022-09-10T00:57:39.795Z,12.67
2022-09-10T01:02:39.320Z,12.66
2022-09-10T01:07:39.296Z,12.65
2022-09-10T01:13:16.020Z,12.63
2022-09-10T01:18:35.473Z,12.62
2022-09-10T01:24:37.293Z,12.60
2022-09-10T01:29:46.097Z,12.58
2022-09-10T01:34:57.711Z,12.57
2022-09-10T01:40:00.290Z,12.55
2022-09-10T01:45:02.841Z,12.54
2022-09-10T01:50:24.336Z,12.53
2022-09-10T01:55:43.011Z,12.51
2022-09-10T02:00:53.857Z,12.48
2022-09-10T02:05:57.854Z,12.46
2022-09-10T02:11:01.484Z,12.45
2022-09-10T02:16:07.139Z,12.42
2022-09-10T02:21:15.620Z,12.41
2022-09-10T02:26:15.963Z,12.39
2022-09-10T02:31:15.130Z,12.38
2022-09-10T02:36:14.696Z,12.37
2022-09-10T02:41:15.727Z,12.35
2022-09-10T02:46:15.312Z,12.36
2022-09-10T02:51:15.108Z,12.36
2022-09-10T02:56:15.462Z,12.36
2022-09-10T03:01:18.462Z,12.37
2022-09-10T03:06:23.478Z,12.37
2022-09-10T03:11:24.312Z,12.36
2022-09-10T03:16:28.038Z,12.35
2022-09-10T03:21:29.146Z,12.36
2022-09-10T03:26:30.686Z,12.36
2022-09-10T03:31:30.363Z,12.36
2022-09-10T03:36:31.596Z,12.35
2022-09-10T03:41:32.282Z,12.34
2022-09-10T03:46:32.830Z,12.33
2022-09-10T03:51:34.305Z,12.31
2022-09-10T03:56:35.716Z,12.29
2022-09-10T04:01:34.783Z,12.26
2022-09-10T04:06:37.426Z,12.24
2022-09-10T04:11:37.463Z,12.24
2022-09-10T04:16:37.465Z,12.24
2022-09-10T04:21:38.649Z,12.23
2022-09-10T04:26:39.703Z,12.24
2022-09-10T04:31:39.615Z,12.26
2022-09-10T04:36:43.571Z,12.26
2022-09-10T04:41:42.921Z,12.28
2022-09-10T04:46:43.775Z,12.30
2022-09-10T04:51:43.046Z,12.32
2022-09-10T04:56:43.118Z,12.34
2022-09-10T05:01:45.251Z,12.37
2022-09-10T05:06:45.150Z,12.39
2022-09-10T05:11:44.652Z,12.41
2022-09-10T05:16:44.656Z,12.44
2022-09-10T05:21:46.825Z,12.48
2022-09-10T05:26:46.962Z,12.52
2022-09-10T05:31:45.866Z,12.56
2022-09-10T05:36:45.932Z,12.60
2022-09-10T05:41:47.585Z,12.63
2022-09-10T05:46:46.527Z,12.65
2022-09-10T05:51:46.933Z,12.69
2022-09-10T05:56:46.183Z,12.71
2022-09-10T06:01:46.019Z,12.74
2022-09-10T06:06:45.869Z,12.78
2022-09-10T06:11:45.580Z,12.83
2022-09-10T06:16:44.283Z,12.87
2022-09-10T06:21:43.687Z,12.90
2022-09-10T06:26:42.785Z,12.96
2022-09-10T06:31:44.862Z,13.01
2022-09-10T06:36:45.841Z,13.06
2022-09-10T06:41:49.445Z,13.11
2022-09-10T06:52:31.371Z,13.23
2022-09-10T06:57:34.518Z,13.30
2022-09-10T07:02:34.747Z,13.35
2022-09-10T07:07:34.547Z,13.41
2022-09-10T07:12:35.548Z,13.47
2022-09-10T07:17:37.963Z,13.53
2022-09-10T07:22:39.762Z,13.58
2022-09-10T07:27:41.873Z,13.63
2022-09-10T07:32:40.515Z,13.66
2022-09-10T07:37:48.558Z,13.69
2022-09-10T07:42:48.351Z,13.70
2022-09-10T07:47:48.466Z,13.71
2022-09-10T07:52:49.475Z,13.73
2022-09-10T07:57:48.813Z,13.75
2022-09-10T08:02:49.804Z,13.76
2022-09-10T08:07:54.117Z,13.75
2022-09-10T08:12:53.587Z,13.76
2022-09-10T08:17:53.352Z,13.76
2022-09-10T08:22:57.618Z,13.78
2022-09-10T08:27:58.341Z,13.80
2022-09-10T08:32:58.132Z,13.83
2022-09-10T08:37:57.148Z,13.88
2022-09-10T08:42:57.741Z,13.92
2022-09-10T08:48:08.935Z,13.96
2022-09-10T08:53:26.929Z,14.00
2022-09-10T08:58:35.202Z,14.05
2022-09-10T09:03:41.769Z,14.12
2022-09-10T09:08:50.246Z,14.17
2022-09-10T09:14:21.255Z,14.17
2022-09-10T09:19:33.684Z,14.16
2022-09-10T09:24:54.025Z,14.16
2022-09-10T09:30:03.016Z,14.20
2022-09-10T09:35:24.004Z,14.25
2022-09-10T09:40:34.219Z,14.30
2022-09-10T09:45:43.882Z,14.36
2022-09-10T09:50:49.315Z,14.44
2022-09-10T09:55:53.936Z,14.57
2022-09-10T10:01:07.095Z,14.71
2022-09-10T10:06:09.776Z,14.80
2022-09-10T10:11:14.606Z,14.88
2022-09-10T10:16:27.030Z,14.91
2022-09-10T10:21:34.086Z,14.91
2022-09-10T10:26:36.977Z,14.88
2022-09-10T10:31:44.811Z,14.75
2022-09-10T10:36:57.426Z,14.73
2022-09-10T10:42:14.086Z,14.79
2022-09-10T10:47:45.435Z,14.85
2022-09-10T10:53:06.289Z,14.93
2022-09-10T10:58:39.832Z,14.98
2022-09-10T11:03:46.235Z,15.02
2022-09-10T11:08:51.894Z,15.06
2022-09-10T11:13:58.877Z,15.10
2022-09-10T11:19:03.707Z,15.13
2022-09-10T11:24:16.328Z,15.12
2022-09-10T11:29:34.373Z,15.06
2022-09-10T11:34:47.867Z,15.05
2022-09-10T11:39:55.304Z,15.05
2022-09-10T11:45:04.481Z,15.06
2022-09-10T11:50:11.387Z,15.09
2022-09-10T11:55:17.879Z,15.12
2022-09-10T12:00:20.986Z,15.12
2022-09-10T12:05:31.477Z,15.11
2022-09-10T12:10:40.251Z,15.08
2022-09-10T12:15:40.789Z,15.04
2022-09-10T12:20:50.185Z,15.01
2022-09-10T12:26:00.309Z,14.98
2022-09-10T12:31:07.041Z,14.94
2022-09-10T12:36:06.586Z,14.92
2022-09-10T12:41:09.808Z,14.92
2022-09-10T12:46:25.921Z,14.92
2022-09-10T12:51:48.719Z,14.89
2022-09-10T12:57:28.706Z,14.88
2022-09-10T13:02:35.479Z,14.91
2022-09-10T13:07:44.523Z,14.91
2022-09-10T13:12:48.714Z,14.93
2022-09-10T13:18:29.141Z,14.95
2022-09-10T13:23:50.880Z,15.00
2022-09-10T13:29:12.688Z,15.11
2022-09-10T13:35:08.659Z,15.20
2022-09-10T13:40:58.994Z,15.22
2022-09-10T13:46:04.029Z,15.21
2022-09-10T13:51:17.195Z,15.19
2022-09-10T13:56:24.395Z,15.13
2022-09-10T14:01:42.986Z,15.10
2022-09-10T14:06:43.507Z,15.05
2022-09-10T14:11:46.426Z,15.02
2022-09-10T14:16:50.169Z,15.04
2022-09-10T14:21:53.615Z,15.06
2022-09-10T14:27:16.947Z,15.10
2022-09-10T14:32:37.540Z,15.12
2022-09-10T14:37:39.056Z,15.11
2022-09-10T14:42:38.971Z,15.10
2022-09-10T14:47:51.479Z,15.08
2022-09-10T14:52:51.364Z,15.06
2022-09-10T14:57:50.705Z,15.00
2022-09-10T15:02:50.906Z,14.92
2022-09-10T15:07:50.383Z,14.84
2022-09-10T15:12:53.281Z,14.78
2022-09-10T15:17:51.754Z,14.71
2022-09-10T15:22:50.709Z,14.64
2022-09-10T15:27:49.645Z,14.55
2022-09-10T15:32:48.407Z,14.48
2022-09-10T15:37:47.308Z,14.42
2022-09-10T15:42:46.374Z,14.36
2022-09-10T15:47:45.465Z,14.32
2022-09-10T15:52:46.695Z,14.26
2022-09-10T15:57:45.796Z,14.21
2022-09-10T16:02:48.091Z,14.16
2022-09-10T16:07:49.850Z,14.11
2022-09-10T16:12:49.040Z,14.09
2022-09-10T16:17:47.692Z,14.04
2022-09-10T16:22:46.406Z,14.00
2022-09-10T16:27:45.557Z,13.95
2022-09-10T16:32:44.697Z,13.89
2022-09-10T16:37:43.121Z,13.83
2022-09-10T16:42:42.500Z,13.77
2022-09-10T16:47:41.584Z,13.73
2022-09-10T16:52:41.160Z,13.68
2022-09-10T16:57:41.414Z,13.64
2022-09-10T17:02:40.978Z,13.58
2022-09-10T17:07:39.868Z,13.54
2022-09-10T17:12:38.967Z,13.50
2022-09-10T17:17:38.499Z,13.47
2022-09-10T17:22:37.451Z,13.44
2022-09-10T17:27:36.380Z,13.40
2022-09-10T17:32:36.487Z,13.37
2022-09-10T17:37:36.132Z,13.34
2022-09-10T17:42:34.877Z,13.32
2022-09-10T17:47:34.656Z,13.30
2022-09-10T17:52:33.384Z,13.28
2022-09-10T17:57:33.134Z,13.26
2022-09-10T18:02:32.238Z,13.25
2022-09-10T18:07:31.576Z,13.23
2022-09-10T18:12:30.239Z,13.22
2022-09-10T18:17:29.685Z,13.21
2022-09-10T18:22:28.543Z,13.20
2022-09-10T18:27:27.788Z,13.19
2022-09-10T18:32:26.843Z,13.18
2022-09-10T18:37:25.864Z,13.16
2022-09-10T18:42:24.124Z,13.15
2022-09-10T18:47:43.656Z,13.15
2022-09-10T18:52:45.585Z,13.14
2022-09-10T18:57:44.628Z,13.12
2022-09-10T19:02:46.135Z,13.09
2022-09-10T19:07:45.306Z,13.07
2022-09-10T19:12:44.405Z,13.06
2022-09-10T19:17:43.848Z,13.05
2022-09-10T19:22:44.167Z,13.03
2022-09-10T19:27:42.505Z,13.01
2022-09-10T19:32:41.507Z,13.00
2022-09-10T19:37:40.550Z,12.97
2022-09-10T19:42:39.879Z,12.95
2022-09-10T19:47:38.739Z,12.94
2022-09-10T19:52:38.171Z,12.92
2022-09-10T19:57:37.415Z,12.89
2022-09-10T20:02:39.365Z,12.86
2022-09-10T20:07:38.771Z,12.83
2022-09-10T20:12:38.267Z,12.80
2022-09-10T20:17:38.469Z,12.77
2022-09-10T20:22:38.799Z,12.74
2022-09-10T20:27:37.745Z,12.72
2022-09-10T20:32:37.544Z,12.70
2022-09-10T20:37:36.420Z,12.68
2022-09-10T20:42:35.518Z,12.66
2022-09-10T20:47:43.164Z,12.65
2022-09-10T20:52:44.560Z,12.64
2022-09-10T20:57:43.844Z,12.62
2022-09-10T21:02:42.845Z,12.61
2022-09-10T21:07:41.596Z,12.59
2022-09-10T21:12:40.300Z,12.58
2022-09-10T21:17:40.369Z,12.55
2022-09-10T21:22:39.328Z,12.52
2022-09-10T21:27:38.038Z,12.49
2022-09-10T21:32:38.375Z,12.46
2022-09-10T21:37:38.128Z,12.45
2022-09-10T21:42:37.175Z,12.42
2022-09-10T21:47:36.621Z,12.38
2022-09-10T21:52:35.526Z,12.35
2022-09-10T21:57:34.006Z,12.31
2022-09-10T22:02:33.451Z,12.30
2022-09-10T22:07:33.493Z,12.28
2022-09-10T22:12:32.252Z,12.26
2022-09-10T22:17:31.316Z,12.24
2022-09-10T22:22:30.169Z,12.21
2022-09-10T22:27:29.170Z,12.17
2022-09-10T22:32:28.507Z,12.13
2022-09-10T22:37:27.040Z,12.08
2022-09-10T22:42:26.447Z,12.00
2022-09-10T22:47:25.305Z,11.94
2022-09-10T22:52:24.354Z,11.87
2022-09-10T22:57:24.776Z,11.81
2022-09-10T23:02:24.624Z,11.77
2022-09-10T23:07:23.260Z,11.72
2022-09-10T23:12:22.703Z,11.68
2022-09-10T23:17:22.772Z,11.64
2022-09-10T23:22:22.189Z,11.60
2022-09-10T23:27:20.941Z,11.59
2022-09-10T23:32:20.212Z,11.57
2022-09-10T23:37:19.959Z,11.56
2022-09-10T23:42:21.679Z,11.53
2022-09-10T23:47:20.934Z,11.51
2022-09-10T23:52:20.294Z,11.49
2022-09-10T23:57:19.340Z,11.47
